sensor_id;sensor_type;location;lat;lon;timestamp;P1;durP1;ratioP1;P2;durP2;ratioP2
27367;SDS011;14839;48.106;11.618;2022-07-23T04:01:50;3.13;;;2.50;;
27367;SDS011;14839;48.106;11.618;2022-07-23T04:04:16;3.63;;;3.33;;
27367;SDS011;14839;48.106;11.618;2022-07-23T04:06:42;5.77;;;3.20;;
27367;SDS011;14839;48.106;11.618;2022-07-23T04:09:07;2.70;;;2.43;;
27367;SDS011;14839;48.106;11.618;2022-07-23T04:11:33;4.13;;;3.47;;
27367;SDS011;14839;48.106;11.618;2022-07-23T04:13:58;6.30;;;3.13;;
27367;SDS011;14839;48.106;11.618;2022-07-23T04:16:24;3.97;;;2.90;;
27367;SDS011;14839;48.106;11.618;2022-07-23T04:18:49;5.53;;;2.57;;
27367;SDS011;14839;48.106;11.618;2022-07-23T04:21:15;4.13;;;3.30;;
27367;SDS011;14839;48.106;11.618;2022-07-23T04:23:40;4.00;;;3.23;;
27367;SDS011;14839;48.106;11.618;2022-07-23T04:26:06;3.70;;;3.20;;
27367;SDS011;14839;48.106;11.618;2022-07-23T04:28:31;4.40;;;3.37;;
27367;SDS011;14839;48.106;11.618;2022-07-23T04:30:57;4.37;;;3.63;;
27367;SDS011;14839;48.106;11.618;2022-07-23T04:33:23;3.43;;;3.10;;
27367;SDS011;14839;48.106;11.618;2022-07-23T04:35:49;3.27;;;2.97;;
27367;SDS011;14839;48.106;11.618;2022-07-23T04:38:15;4.67;;;3.57;;
27367;SDS011;14839;48.106;11.618;2022-07-23T04:40:40;4.37;;;3.50;;
27367;SDS011;14839;48.106;11.618;2022-07-23T04:43:06;5.77;;;3.60;;
27367;SDS011;14839;48.106;11.618;2022-07-23T04:45:32;5.43;;;3.30;;
27367;SDS011;14839;48.106;11.618;2022-07-23T04:47:57;6.23;;;3.67;;
27367;SDS011;14839;48.106;11.618;2022-07-23T04:50:23;4.60;;;3.50;;
27367;SDS011;14839;48.106;11.618;2022-07-23T04:52:49;4.53;;;3.40;;
27367;SDS011;14839;48.106;11.618;2022-07-23T04:55:15;5.60;;;3.27;;
27367;SDS011;14839;48.106;11.618;2022-07-23T04:57:40;5.77;;;4.03;;
27367;SDS011;14839;48.106;11.618;2022-07-23T05:00:06;3.83;;;3.43;;
27367;SDS011;14839;48.106;11.618;2022-07-23T05:02:32;3.63;;;3.17;;
27367;SDS011;14839;48.106;11.618;2022-07-23T05:04:58;4.00;;;3.20;;
27367;SDS011;14839;48.106;11.618;2022-07-23T05:07:23;4.87;;;2.70;;
27367;SDS011;14839;48.106;11.618;2022-07-23T05:09:49;4.17;;;3.70;;
27367;SDS011;14839;48.106;11.618;2022-07-23T05:12:15;3.30;;;2.60;;
27367;SDS011;14839;48.106;11.618;2022-07-23T05:14:40;6.17;;;3.27;;
27367;SDS011;14839;48.106;11.618;2022-07-23T05:17:06;3.77;;;2.90;;
27367;SDS011;14839;48.106;11.618;2022-07-23T05:19:33;4.20;;;3.50;;
27367;SDS011;14839;48.106;11.618;2022-07-23T05:21:59;3.70;;;3.27;;
27367;SDS011;14839;48.106;11.618;2022-07-23T05:24:24;5.17;;;3.57;;
27367;SDS011;14839;48.106;11.618;2022-07-23T05:26:50;4.97;;;3.67;;
27367;SDS011;14839;48.106;11.618;2022-07-23T05:29:15;3.90;;;3.50;;
27367;SDS011;14839;48.106;11.618;2022-07-23T05:31:41;3.67;;;3.30;;
27367;SDS011;14839;48.106;11.618;2022-07-23T05:34:06;4.90;;;3.50;;
27367;SDS011;14839;48.106;11.618;2022-07-23T05:36:32;3.67;;;3.20;;
27367;SDS011;14839;48.106;11.618;2022-07-23T05:38:57;5.57;;;3.33;;
27367;SDS011;14839;48.106;11.618;2022-07-23T05:41:23;4.23;;;3.70;;
27367;SDS011;14839;48.106;11.618;2022-07-23T05:43:49;3.77;;;3.20;;
27367;SDS011;14839;48.106;11.618;2022-07-23T05:46:15;3.20;;;2.90;;
27367;SDS011;14839;48.106;11.618;2022-07-23T05:48:41;4.00;;;3.53;;
27367;SDS011;14839;48.106;11.618;2022-07-23T05:51:07;3.97;;;3.43;;
27367;SDS011;14839;48.106;11.618;2022-07-23T05:53:34;3.87;;;3.37;;
27367;SDS011;14839;48.106;11.618;2022-07-23T05:56:00;3.97;;;3.10;;
27367;SDS011;14839;48.106;11.618;2022-07-23T05:58:26;4.40;;;3.73;;
27367;SDS011;14839;48.106;11.618;2022-07-23T06:00:51;4.60;;;4.03;;
27367;SDS011;14839;48.106;11.618;2022-07-23T06:03:17;4.60;;;3.85;;
27367;SDS011;14839;48.106;11.618;2022-07-23T06:05:43;4.47;;;3.77;;
27367;SDS011;14839;48.106;11.618;2022-07-23T06:08:08;5.00;;;3.87;;
27367;SDS011;14839;48.106;11.618;2022-07-23T06:10:34;5.33;;;4.50;;
27367;SDS011;14839;48.106;11.618;2022-07-23T06:12:59;4.60;;;3.30;;
27367;SDS011;14839;48.106;11.618;2022-07-23T06:15:25;4.00;;;3.27;;
27367;SDS011;14839;48.106;11.618;2022-07-23T06:17:51;4.20;;;3.80;;
27367;SDS011;14839;48.106;11.618;2022-07-23T06:20:16;5.00;;;3.73;;
27367;SDS011;14839;48.106;11.618;2022-07-23T06:22:42;3.80;;;3.30;;
27367;SDS011;14839;48.106;11.618;2022-07-23T06:25:07;5.90;;;3.90;;
27367;SDS011;14839;48.106;11.618;2022-07-23T06:27:33;3.90;;;3.60;;
27367;SDS011;14839;48.106;11.618;2022-07-23T06:29:59;5.13;;;4.20;;
27367;SDS011;14839;48.106;11.618;2022-07-23T06:32:24;4.83;;;4.20;;
27367;SDS011;14839;48.106;11.618;2022-07-23T06:34:50;6.40;;;3.80;;
27367;SDS011;14839;48.106;11.618;2022-07-23T06:37:15;4.27;;;3.67;;
27367;SDS011;14839;48.106;11.618;2022-07-23T06:39:41;5.57;;;3.73;;
27367;SDS011;14839;48.106;11.618;2022-07-23T06:42:07;4.83;;;3.80;;
27367;SDS011;14839;48.106;11.618;2022-07-23T06:44:32;3.47;;;3.17;;
27367;SDS011;14839;48.106;11.618;2022-07-23T06:46:58;7.53;;;4.33;;
27367;SDS011;14839;48.106;11.618;2022-07-23T06:49:23;5.13;;;3.80;;
27367;SDS011;14839;48.106;11.618;2022-07-23T06:51:49;8.00;;;3.80;;
27367;SDS011;14839;48.106;11.618;2022-07-23T06:54:14;6.30;;;4.00;;
27367;SDS011;14839;48.106;11.618;2022-07-23T06:56:40;4.63;;;3.87;;
27367;SDS011;14839;48.106;11.618;2022-07-23T06:59:06;4.23;;;3.77;;
27367;SDS011;14839;48.106;11.618;2022-07-23T07:01:32;6.33;;;4.30;;
27367;SDS011;14839;48.106;11.618;2022-07-23T07:03:58;4.60;;;4.10;;
27367;SDS011;14839;48.106;11.618;2022-07-23T07:06:24;4.43;;;3.93;;
27367;SDS011;14839;48.106;11.618;2022-07-23T07:08:49;4.93;;;3.23;;
27367;SDS011;14839;48.106;11.618;2022-07-23T07:11:15;4.53;;;4.13;;
27367;SDS011;14839;48.106;11.618;2022-07-23T07:13:40;4.73;;;3.60;;
27367;SDS011;14839;48.106;11.618;2022-07-23T07:16:06;6.00;;;3.85;;
27367;SDS011;14839;48.106;11.618;2022-07-23T07:18:32;4.50;;;3.45;;
27367;SDS011;14839;48.106;11.618;2022-07-23T07:20:57;6.00;;;3.90;;
27367;SDS011;14839;48.106;11.618;2022-07-23T07:23:23;4.55;;;3.65;;
27367;SDS011;14839;48.106;11.618;2022-07-23T07:25:49;4.18;;;3.78;;
27367;SDS011;14839;48.106;11.618;2022-07-23T07:28:14;4.07;;;3.28;;
27367;SDS011;14839;48.106;11.618;2022-07-23T07:30:40;3.95;;;3.55;;
27367;SDS011;14839;48.106;11.618;2022-07-23T07:33:06;3.95;;;3.53;;
27367;SDS011;14839;48.106;11.618;2022-07-23T07:35:31;4.47;;;3.97;;
27367;SDS011;14839;48.106;11.618;2022-07-23T07:38:03;4.43;;;3.63;;
27367;SDS011;14839;48.106;11.618;2022-07-23T07:40:31;4.45;;;3.85;;
27367;SDS011;14839;48.106;11.618;2022-07-23T07:42:57;4.10;;;3.45;;
27367;SDS011;14839;48.106;11.618;2022-07-23T07:45:23;4.40;;;4.00;;
27367;SDS011;14839;48.106;11.618;2022-07-23T07:47:50;5.40;;;3.83;;
27367;SDS011;14839;48.106;11.618;2022-07-23T07:50:16;4.15;;;3.38;;
27367;SDS011;14839;48.106;11.618;2022-07-23T07:52:42;4.78;;;3.55;;
27367;SDS011;14839;48.106;11.618;2022-07-23T07:55:08;4.43;;;3.88;;
27367;SDS011;14839;48.106;11.618;2022-07-23T07:57:34;4.22;;;3.60;;
27367;SDS011;14839;48.106;11.618;2022-07-23T08:00:00;4.68;;;4.20;;
27367;SDS011;14839;48.106;11.618;2022-07-23T08:02:26;4.63;;;3.60;;
27367;SDS011;14839;48.106;11.618;2022-07-23T08:04:52;3.63;;;3.33;;
27367;SDS011;14839;48.106;11.618;2022-07-23T08:07:18;3.85;;;3.45;;
27367;SDS011;14839;48.106;11.618;2022-07-23T08:09:44;3.80;;;3.38;;
27367;SDS011;14839;48.106;11.618;2022-07-23T08:12:09;6.20;;;4.15;;
27367;SDS011;14839;48.106;11.618;2022-07-23T08:14:35;5.55;;;3.75;;
27367;SDS011;14839;48.106;11.618;2022-07-23T08:17:00;4.75;;;3.90;;
27367;SDS011;14839;48.106;11.618;2022-07-23T08:19:26;4.82;;;4.30;;
27367;SDS011;14839;48.106;11.618;2022-07-23T08:21:52;4.13;;;3.63;;
27367;SDS011;14839;48.106;11.618;2022-07-23T08:24:17;4.13;;;3.67;;
27367;SDS011;14839;48.106;11.618;2022-07-23T08:26:43;4.05;;;3.65;;
27367;SDS011;14839;48.106;11.618;2022-07-23T08:29:08;6.68;;;4.05;;
27367;SDS011;14839;48.106;11.618;2022-07-23T08:31:34;5.18;;;3.63;;
27367;SDS011;14839;48.106;11.618;2022-07-23T08:34:00;3.92;;;3.50;;
27367;SDS011;14839;48.106;11.618;2022-07-23T08:36:27;4.45;;;4.05;;
27367;SDS011;14839;48.106;11.618;2022-07-23T08:38:53;4.75;;;4.25;;
27367;SDS011;14839;48.106;11.618;2022-07-23T08:41:19;6.50;;;3.88;;
27367;SDS011;14839;48.106;11.618;2022-07-23T08:43:45;4.53;;;3.53;;
27367;SDS011;14839;48.106;11.618;2022-07-23T08:46:11;3.60;;;3.13;;
27367;SDS011;14839;48.106;11.618;2022-07-23T08:48:39;4.28;;;3.88;;
27367;SDS011;14839;48.106;11.618;2022-07-23T08:51:05;4.28;;;3.88;;
27367;SDS011;14839;48.106;11.618;2022-07-23T08:53:32;4.05;;;3.38;;
27367;SDS011;14839;48.106;11.618;2022-07-23T08:55:59;4.00;;;3.58;;
27367;SDS011;14839;48.106;11.618;2022-07-23T08:58:27;3.92;;;3.42;;
27367;SDS011;14839;48.106;11.618;2022-07-23T09:00:52;3.88;;;3.47;;
27367;SDS011;14839;48.106;11.618;2022-07-23T09:03:22;4.00;;;3.60;;
27367;SDS011;14839;48.106;11.618;2022-07-23T09:05:50;4.43;;;3.72;;
27367;SDS011;14839;48.106;11.618;2022-07-23T09:08:20;3.22;;;2.92;;
27367;SDS011;14839;48.106;11.618;2022-07-23T09:10:57;3.78;;;3.47;;
27367;SDS011;14839;48.106;11.618;2022-07-23T09:13:38;4.95;;;3.40;;
27367;SDS011;14839;48.106;11.618;2022-07-23T09:16:05;4.50;;;3.60;;
27367;SDS011;14839;48.106;11.618;2022-07-23T09:29:01;4.22;;;3.83;;
27367;SDS011;14839;48.106;11.618;2022-07-23T09:31:30;4.90;;;3.75;;
27367;SDS011;14839;48.106;11.618;2022-07-23T09:34:10;4.68;;;3.90;;
27367;SDS011;14839;48.106;11.618;2022-07-23T09:36:46;5.35;;;3.63;;
27367;SDS011;14839;48.106;11.618;2022-07-23T09:39:14;4.50;;;3.50;;
27367;SDS011;14839;48.106;11.618;2022-07-23T09:41:43;3.60;;;3.30;;
27367;SDS011;14839;48.106;11.618;2022-07-23T09:44:11;4.28;;;3.88;;
27367;SDS011;14839;48.106;11.618;2022-07-23T09:46:41;3.53;;;3.22;;
27367;SDS011;14839;48.106;11.618;2022-07-23T09:49:13;3.53;;;3.22;;
27367;SDS011;14839;48.106;11.618;2022-07-23T09:51:44;3.70;;;3.30;;
27367;SDS011;14839;48.106;11.618;2022-07-23T09:56:53;3.88;;;3.42;;
27367;SDS011;14839;48.106;11.618;2022-07-23T09:59:22;3.65;;;3.35;;
27367;SDS011;14839;48.106;11.618;2022-07-23T10:01:50;6.03;;;3.08;;
27367;SDS011;14839;48.106;11.618;2022-07-23T10:04:16;3.90;;;3.47;;
27367;SDS011;14839;48.106;11.618;2022-07-23T10:06:43;3.63;;;3.33;;
27367;SDS011;14839;48.106;11.618;2022-07-23T10:09:10;3.63;;;3.13;;
27367;SDS011;14839;48.106;11.618;2022-07-23T10:11:41;3.17;;;2.88;;
27367;SDS011;14839;48.106;11.618;2022-07-23T10:14:07;3.47;;;3.17;;
27367;SDS011;14839;48.106;11.618;2022-07-23T10:16:33;3.30;;;3.00;;
27367;SDS011;14839;48.106;11.618;2022-07-23T10:18:58;3.30;;;2.92;;
27367;SDS011;14839;48.106;11.618;2022-07-23T10:21:30;4.00;;;2.78;;
27367;SDS011;14839;48.106;11.618;2022-07-23T10:24:12;6.97;;;2.80;;
27367;SDS011;14839;48.106;11.618;2022-07-23T10:30:25;3.53;;;2.80;;
27367;SDS011;14839;48.106;11.618;2022-07-23T10:33:09;4.85;;;2.50;;
27367;SDS011;14839;48.106;11.618;2022-07-23T10:36:11;3.50;;;2.92;;
27367;SDS011;14839;48.106;11.618;2022-07-23T10:39:05;3.38;;;3.08;;
27367;SDS011;14839;48.106;11.618;2022-07-23T10:41:39;3.42;;;2.88;;
27367;SDS011;14839;48.106;11.618;2022-07-23T10:44:07;3.78;;;3.05;;
27367;SDS011;14839;48.106;11.618;2022-07-23T10:46:36;5.13;;;3.33;;
27367;SDS011;14839;48.106;11.618;2022-07-23T10:50:05;4.07;;;2.72;;
27367;SDS011;14839;48.106;11.618;2022-07-23T10:53:09;3.72;;;2.92;;
27367;SDS011;14839;48.106;11.618;2022-07-23T10:58:00;3.70;;;2.83;;
27367;SDS011;14839;48.106;11.618;2022-07-23T11:00:31;3.35;;;2.58;;
27367;SDS011;14839;48.106;11.618;2022-07-23T11:02:59;3.40;;;2.67;;
27367;SDS011;14839;48.106;11.618;2022-07-23T11:05:27;2.60;;;2.40;;
27367;SDS011;14839;48.106;11.618;2022-07-23T11:24:11;4.47;;;2.78;;
27367;SDS011;14839;48.106;11.618;2022-07-23T11:26:43;3.28;;;2.97;;
27367;SDS011;14839;48.106;11.618;2022-07-23T11:34:32;3.17;;;2.65;;
27367;SDS011;14839;48.106;11.618;2022-07-23T11:37:00;4.50;;;2.95;;
27367;SDS011;14839;48.106;11.618;2022-07-23T11:39:27;2.97;;;2.67;;
27367;SDS011;14839;48.106;11.618;2022-07-23T11:41:53;4.05;;;2.88;;
27367;SDS011;14839;48.106;11.618;2022-07-23T11:44:25;3.63;;;2.45;;
27367;SDS011;14839;48.106;11.618;2022-07-23T11:49:24;3.90;;;3.17;;
27367;SDS011;14839;48.106;11.618;2022-07-23T11:52:12;4.65;;;3.15;;
27367;SDS011;14839;48.106;11.618;2022-07-23T11:54:51;4.70;;;3.08;;
27367;SDS011;14839;48.106;11.618;2022-07-23T11:57:27;3.38;;;3.00;;
27367;SDS011;14839;48.106;11.618;2022-07-23T11:59:58;4.60;;;3.30;;
27367;SDS011;14839;48.106;11.618;2022-07-23T12:02:29;4.30;;;3.17;;
27367;SDS011;14839;48.106;11.618;2022-07-23T12:04:55;4.35;;;3.05;;
27367;SDS011;14839;48.106;11.618;2022-07-23T12:07:37;3.28;;;2.97;;
27367;SDS011;14839;48.106;11.618;2022-07-23T12:10:09;3.53;;;2.88;;
27367;SDS011;14839;48.106;11.618;2022-07-23T12:12:36;3.90;;;2.63;;
27367;SDS011;14839;48.106;11.618;2022-07-23T12:15:07;4.13;;;3.20;;
27367;SDS011;14839;48.106;11.618;2022-07-23T12:17:35;3.72;;;3.33;;
27367;SDS011;14839;48.106;11.618;2022-07-23T12:20:03;4.45;;;3.15;;
27367;SDS011;14839;48.106;11.618;2022-07-23T12:22:35;4.00;;;3.65;;
27367;SDS011;14839;48.106;11.618;2022-07-23T12:25:06;3.47;;;3.17;;
27367;SDS011;14839;48.106;11.618;2022-07-23T12:27:36;3.88;;;3.22;;
27367;SDS011;14839;48.106;11.618;2022-07-23T12:32:45;3.20;;;2.90;;
27367;SDS011;14839;48.106;11.618;2022-07-23T12:35:12;4.30;;;3.38;;
27367;SDS011;14839;48.106;11.618;2022-07-23T12:37:39;4.03;;;3.00;;
27367;SDS011;14839;48.106;11.618;2022-07-23T12:40:23;4.80;;;3.20;;
27367;SDS011;14839;48.106;11.618;2022-07-23T12:42:56;3.55;;;3.10;;
27367;SDS011;14839;48.106;11.618;2022-07-23T12:45:27;3.13;;;2.83;;
27367;SDS011;14839;48.106;11.618;2022-07-23T12:48:06;7.90;;;3.40;;
27367;SDS011;14839;48.106;11.618;2022-07-23T12:50:36;3.40;;;3.10;;
27367;SDS011;14839;48.106;11.618;2022-07-23T12:53:14;3.60;;;3.00;;
27367;SDS011;14839;48.106;11.618;2022-07-23T12:55:41;3.85;;;2.85;;
27367;SDS011;14839;48.106;11.618;2022-07-23T12:58:09;3.67;;;3.05;;
27367;SDS011;14839;48.106;11.618;2022-07-23T13:01:02;3.50;;;3.20;;
27367;SDS011;14839;48.106;11.618;2022-07-23T13:03:31;3.90;;;2.95;;
27367;SDS011;14839;48.106;11.618;2022-07-23T13:05:57;4.85;;;3.38;;
27367;SDS011;14839;48.106;11.618;2022-07-23T13:08:23;2.80;;;2.60;;
27367;SDS011;14839;48.106;11.618;2022-07-23T13:10:50;4.30;;;3.05;;
27367;SDS011;14839;48.106;11.618;2022-07-23T13:13:20;3.40;;;3.10;;
27367;SDS011;14839;48.106;11.618;2022-07-23T13:15:50;5.43;;;3.40;;
27367;SDS011;14839;48.106;11.618;2022-07-23T13:18:17;3.63;;;3.22;;
27367;SDS011;14839;48.106;11.618;2022-07-23T13:20:44;4.10;;;3.25;;
27367;SDS011;14839;48.106;11.618;2022-07-23T13:23:10;3.55;;;3.25;;
27367;SDS011;14839;48.106;11.618;2022-07-23T13:25:35;6.07;;;3.28;;
27367;SDS011;14839;48.106;11.618;2022-07-23T13:28:01;3.65;;;3.28;;
27367;SDS011;14839;48.106;11.618;2022-07-23T13:30:27;4.75;;;3.47;;
27367;SDS011;14839;48.106;11.618;2022-07-23T13:32:52;3.58;;;3.28;;
27367;SDS011;14839;48.106;11.618;2022-07-23T13:35:18;4.38;;;3.35;;
27367;SDS011;14839;48.106;11.618;2022-07-23T13:37:44;5.30;;;3.28;;
27367;SDS011;14839;48.106;11.618;2022-07-23T13:40:09;3.53;;;3.22;;
27367;SDS011;14839;48.106;11.618;2022-07-23T13:42:36;4.05;;;3.67;;
27367;SDS011;14839;48.106;11.618;2022-07-23T13:45:02;3.67;;;3.15;;
27367;SDS011;14839;48.106;11.618;2022-07-23T13:47:28;4.22;;;3.30;;
27367;SDS011;14839;48.106;11.618;2022-07-23T13:49:54;3.80;;;3.47;;
27367;SDS011;14839;48.106;11.618;2022-07-23T13:52:19;3.65;;;3.28;;
27367;SDS011;14839;48.106;11.618;2022-07-23T13:54:45;4.07;;;3.30;;
27367;SDS011;14839;48.106;11.618;2022-07-23T13:57:10;3.70;;;3.17;;
27367;SDS011;14839;48.106;11.618;2022-07-23T13:59:36;3.47;;;2.90;;
27367;SDS011;14839;48.106;11.618;2022-07-23T14:02:02;3.72;;;3.40;;
27367;SDS011;14839;48.106;11.618;2022-07-23T14:04:28;3.25;;;2.95;;
27367;SDS011;14839;48.106;11.618;2022-07-23T14:06:54;3.05;;;2.75;;
27367;SDS011;14839;48.106;11.618;2022-07-23T14:09:20;6.75;;;2.70;;
27367;SDS011;14839;48.106;11.618;2022-07-23T14:11:46;4.05;;;3.15;;
27367;SDS011;14839;48.106;11.618;2022-07-23T14:14:12;3.08;;;2.83;;
27367;SDS011;14839;48.106;11.618;2022-07-23T14:16:38;5.93;;;2.95;;
27367;SDS011;14839;48.106;11.618;2022-07-23T14:19:06;5.00;;;3.63;;
27367;SDS011;14839;48.106;11.618;2022-07-23T14:21:32;4.38;;;3.03;;
27367;SDS011;14839;48.106;11.618;2022-07-23T14:23:58;5.35;;;3.40;;
27367;SDS011;14839;48.106;11.618;2022-07-23T14:26:23;3.78;;;3.38;;
27367;SDS011;14839;48.106;11.618;2022-07-23T14:28:49;3.95;;;3.38;;
27367;SDS011;14839;48.106;11.618;2022-07-23T14:31:15;6.03;;;3.88;;
27367;SDS011;14839;48.106;11.618;2022-07-23T14:33:40;3.13;;;2.83;;
27367;SDS011;14839;48.106;11.618;2022-07-23T14:36:06;3.72;;;3.20;;
27367;SDS011;14839;48.106;11.618;2022-07-23T14:38:32;4.10;;;3.50;;
27367;SDS011;14839;48.106;11.618;2022-07-23T14:40:57;4.22;;;3.28;;
27367;SDS011;14839;48.106;11.618;2022-07-23T14:43:23;4.35;;;3.55;;
27367;SDS011;14839;48.106;11.618;2022-07-23T14:45:49;4.30;;;3.20;;
27367;SDS011;14839;48.106;11.618;2022-07-23T14:48:14;3.83;;;3.20;;
27367;SDS011;14839;48.106;11.618;2022-07-23T14:50:40;4.45;;;3.22;;
27367;SDS011;14839;48.106;11.618;2022-07-23T14:53:06;3.67;;;3.38;;
27367;SDS011;14839;48.106;11.618;2022-07-23T14:55:32;3.63;;;3.33;;
27367;SDS011;14839;48.106;11.618;2022-07-23T14:57:58;4.15;;;3.55;;
27367;SDS011;14839;48.106;11.618;2022-07-23T15:00:24;3.97;;;3.40;;
27367;SDS011;14839;48.106;11.618;2022-07-23T15:02:50;4.43;;;3.35;;
27367;SDS011;14839;48.106;11.618;2022-07-23T15:05:16;4.60;;;3.40;;
27367;SDS011;14839;48.106;11.618;2022-07-23T15:07:42;4.22;;;3.03;;
27367;SDS011;14839;48.106;11.618;2022-07-23T15:10:07;3.55;;;3.20;;
27367;SDS011;14839;48.106;11.618;2022-07-23T15:12:33;4.50;;;3.88;;
27367;SDS011;14839;48.106;11.618;2022-07-23T15:14:59;3.58;;;3.22;;
27367;SDS011;14839;48.106;11.618;2022-07-23T15:17:24;3.92;;;3.60;;
27367;SDS011;14839;48.106;11.618;2022-07-23T15:19:50;6.35;;;3.58;;
27367;SDS011;14839;48.106;11.618;2022-07-23T15:22:16;4.30;;;3.38;;
27367;SDS011;14839;48.106;11.618;2022-07-23T15:24:42;4.20;;;3.78;;
27367;SDS011;14839;48.106;11.618;2022-07-23T15:27:08;4.72;;;4.00;;
27367;SDS011;14839;48.106;11.618;2022-07-23T15:29:34;4.57;;;3.40;;
27367;SDS011;14839;48.106;11.618;2022-07-23T15:31:59;4.03;;;3.63;;
27367;SDS011;14839;48.106;11.618;2022-07-23T15:34:25;3.70;;;3.40;;
27367;SDS011;14839;48.106;11.618;2022-07-23T15:36:51;4.45;;;4.05;;
27367;SDS011;14839;48.106;11.618;2022-07-23T15:39:17;5.05;;;3.88;;
27367;SDS011;14839;48.106;11.618;2022-07-23T15:41:43;5.95;;;3.53;;
27367;SDS011;14839;48.106;11.618;2022-07-23T15:44:08;4.38;;;3.65;;
27367;SDS011;14839;48.106;11.618;2022-07-23T15:46:34;4.30;;;3.65;;
27367;SDS011;14839;48.106;11.618;2022-07-23T15:49:00;6.82;;;3.42;;
27367;SDS011;14839;48.106;11.618;2022-07-23T15:51:25;4.10;;;3.70;;
27367;SDS011;14839;48.106;11.618;2022-07-23T15:53:51;3.83;;;3.53;;
27367;SDS011;14839;48.106;11.618;2022-07-23T15:56:17;4.10;;;3.70;;
27367;SDS011;14839;48.106;11.618;2022-07-23T15:58:42;5.68;;;4.03;;
27367;SDS011;14839;48.106;11.618;2022-07-23T16:01:08;3.60;;;3.30;;
27367;SDS011;14839;48.106;11.618;2022-07-23T16:03:34;5.22;;;4.15;;
27367;SDS011;14839;48.106;11.618;2022-07-23T16:06:01;4.57;;;3.90;;
27367;SDS011;14839;48.106;11.618;2022-07-23T16:08:27;5.88;;;4.30;;
27367;SDS011;14839;48.106;11.618;2022-07-23T16:10:53;5.35;;;3.65;;
27367;SDS011;14839;48.106;11.618;2022-07-23T16:13:21;4.30;;;3.55;;
27367;SDS011;14839;48.106;11.618;2022-07-23T16:15:47;4.82;;;4.10;;
27367;SDS011;14839;48.106;11.618;2022-07-23T16:18:13;4.43;;;4.03;;
27367;SDS011;14839;48.106;11.618;2022-07-23T16:20:39;4.95;;;4.45;;
27367;SDS011;14839;48.106;11.618;2022-07-23T16:23:05;4.70;;;4.30;;
27367;SDS011;14839;48.106;11.618;2022-07-23T16:25:32;6.10;;;4.47;;
27367;SDS011;14839;48.106;11.618;2022-07-23T16:27:58;4.90;;;4.25;;
27367;SDS011;14839;48.106;11.618;2022-07-23T16:30:24;4.15;;;3.75;;
27367;SDS011;14839;48.106;11.618;2022-07-23T16:32:50;60.97;;;35.42;;
27367;SDS011;14839;48.106;11.618;2022-07-23T16:35:16;60.58;;;43.13;;
27367;SDS011;14839;48.106;11.618;2022-07-23T16:37:41;51.25;;;32.08;;
27367;SDS011;14839;48.106;11.618;2022-07-23T16:40:08;65.55;;;44.83;;
27367;SDS011;14839;48.106;11.618;2022-07-23T16:42:35;22.50;;;16.95;;
27367;SDS011;14839;48.106;11.618;2022-07-23T16:45:00;5.70;;;4.97;;
27367;SDS011;14839;48.106;11.618;2022-07-23T16:47:27;5.80;;;4.30;;
27367;SDS011;14839;48.106;11.618;2022-07-23T16:49:53;4.43;;;3.50;;
27367;SDS011;14839;48.106;11.618;2022-07-23T16:52:19;9.55;;;4.10;;
27367;SDS011;14839;48.106;11.618;2022-07-23T16:54:45;6.30;;;4.20;;
27367;SDS011;14839;48.106;11.618;2022-07-23T16:57:14;4.95;;;4.45;;
27367;SDS011;14839;48.106;11.618;2022-07-23T16:59:39;5.65;;;4.72;;
27367;SDS011;14839;48.106;11.618;2022-07-23T17:02:05;5.05;;;4.22;;
27367;SDS011;14839;48.106;11.618;2022-07-23T17:04:31;5.10;;;4.20;;
27367;SDS011;14839;48.106;11.618;2022-07-23T17:06:56;7.38;;;5.38;;
27367;SDS011;14839;48.106;11.618;2022-07-23T17:09:27;5.55;;;4.88;;
27367;SDS011;14839;48.106;11.618;2022-07-23T17:11:54;6.40;;;5.38;;
27367;SDS011;14839;48.106;11.618;2022-07-23T17:14:20;6.03;;;5.47;;
27367;SDS011;14839;48.106;11.618;2022-07-23T17:16:45;7.57;;;5.25;;
27367;SDS011;14839;48.106;11.618;2022-07-23T17:19:11;6.25;;;5.15;;
27367;SDS011;14839;48.106;11.618;2022-07-23T17:21:37;5.22;;;4.70;;
27367;SDS011;14839;48.106;11.618;2022-07-23T17:24:03;6.68;;;5.65;;
27367;SDS011;14839;48.106;11.618;2022-07-23T17:26:28;7.13;;;5.20;;
27367;SDS011;14839;48.106;11.618;2022-07-23T17:28:54;5.00;;;4.50;;
27367;SDS011;14839;48.106;11.618;2022-07-23T17:31:20;5.30;;;4.78;;
27367;SDS011;14839;48.106;11.618;2022-07-23T17:33:45;4.78;;;4.38;;
27367;SDS011;14839;48.106;11.618;2022-07-23T17:36:12;5.57;;;5.07;;
27367;SDS011;14839;48.106;11.618;2022-07-23T17:38:38;7.00;;;5.20;;
27367;SDS011;14839;48.106;11.618;2022-07-23T17:41:03;5.53;;;4.28;;
27367;SDS011;14839;48.106;11.618;2022-07-23T17:43:32;7.55;;;5.00;;
27367;SDS011;14839;48.106;11.618;2022-07-23T17:45:57;10.35;;;5.30;;
27367;SDS011;14839;48.106;11.618;2022-07-23T17:48:23;6.13;;;5.05;;
27367;SDS011;14839;48.106;11.618;2022-07-23T17:50:50;6.65;;;5.05;;
27367;SDS011;14839;48.106;11.618;2022-07-23T17:53:16;6.50;;;4.90;;
27367;SDS011;14839;48.106;11.618;2022-07-23T17:55:42;6.47;;;4.85;;
27367;SDS011;14839;48.106;11.618;2022-07-23T17:58:08;5.20;;;4.70;;
27367;SDS011;14839;48.106;11.618;2022-07-23T18:00:34;6.30;;;4.65;;
27367;SDS011;14839;48.106;11.618;2022-07-23T18:03:01;5.10;;;4.50;;
27367;SDS011;14839;48.106;11.618;2022-07-23T18:05:28;5.85;;;4.93;;
27367;SDS011;14839;48.106;11.618;2022-07-23T18:07:54;5.90;;;4.45;;
27367;SDS011;14839;48.106;11.618;2022-07-23T18:10:20;5.40;;;4.82;;
27367;SDS011;14839;48.106;11.618;2022-07-23T18:12:46;5.18;;;4.68;;
27367;SDS011;14839;48.106;11.618;2022-07-23T18:15:13;5.03;;;4.45;;
27367;SDS011;14839;48.106;11.618;2022-07-23T18:17:40;5.75;;;5.15;;
27367;SDS011;14839;48.106;11.618;2022-07-23T18:20:08;5.22;;;4.70;;
27367;SDS011;14839;48.106;11.618;2022-07-23T18:22:35;6.60;;;4.43;;
27367;SDS011;14839;48.106;11.618;2022-07-23T18:25:04;5.05;;;4.50;;
27367;SDS011;14839;48.106;11.618;2022-07-23T18:27:34;7.05;;;5.10;;
27367;SDS011;14839;48.106;11.618;2022-07-23T18:33:02;5.22;;;4.30;;
27367;SDS011;14839;48.106;11.618;2022-07-23T18:35:48;5.50;;;4.63;;
27367;SDS011;14839;48.106;11.618;2022-07-23T18:38:13;5.28;;;4.32;;
27367;SDS011;14839;48.106;11.618;2022-07-23T18:40:39;5.35;;;4.85;;
27367;SDS011;14839;48.106;11.618;2022-07-23T18:43:05;5.90;;;4.80;;
27367;SDS011;14839;48.106;11.618;2022-07-23T18:45:31;5.25;;;4.75;;
27367;SDS011;14839;48.106;11.618;2022-07-23T18:47:57;5.43;;;4.93;;
27367;SDS011;14839;48.106;11.618;2022-07-23T18:50:23;6.85;;;4.82;;
27367;SDS011;14839;48.106;11.618;2022-07-23T18:52:49;5.55;;;5.05;;
27367;SDS011;14839;48.106;11.618;2022-07-23T18:55:15;6.10;;;5.20;;
27367;SDS011;14839;48.106;11.618;2022-07-23T18:57:42;6.88;;;5.07;;
27367;SDS011;14839;48.106;11.618;2022-07-23T19:00:08;5.60;;;4.95;;
27367;SDS011;14839;48.106;11.618;2022-07-23T19:02:35;6.53;;;5.22;;
27367;SDS011;14839;48.106;11.618;2022-07-23T19:05:01;7.03;;;4.93;;
27367;SDS011;14839;48.106;11.618;2022-07-23T19:07:26;6.40;;;5.05;;
27367;SDS011;14839;48.106;11.618;2022-07-23T19:09:52;5.07;;;4.57;;
27367;SDS011;14839;48.106;11.618;2022-07-23T19:12:18;5.55;;;5.03;;
27367;SDS011;14839;48.106;11.618;2022-07-23T19:14:43;6.18;;;5.13;;
27367;SDS011;14839;48.106;11.618;2022-07-23T19:17:09;6.68;;;5.53;;
27367;SDS011;14839;48.106;11.618;2022-07-23T19:19:35;7.97;;;5.18;;
27367;SDS011;14839;48.106;11.618;2022-07-23T19:22:00;5.53;;;5.00;;
27367;SDS011;14839;48.106;11.618;2022-07-23T19:24:27;6.50;;;5.30;;